sensor_id;sensor_type;location;lat;lon;timestamp;pressure;altitude;pressure_sealevel;temperature;humidity
74372;BME280;62885;51.374;6.170;2023-07-31T00:00:30;100747.16;;;16.76;100.00
74372;BME280;62885;51.374;6.170;2023-07-31T00:02:55;100751.53;;;16.77;100.00
74372;BME280;62885;51.374;6.170;2023-07-31T00:05:21;100751.25;;;16.80;100.00
74372;BME280;62885;51.374;6.170;2023-07-31T00:07:46;100736.00;;;16.79;100.00
74372;BME280;62885;51.374;6.170;2023-07-31T00:10:12;100735.16;;;16.79;100.00
74372;BME280;62885;51.374;6.170;2023-07-31T00:12:42;100740.81;;;16.86;100.00
74372;BME280;62885;51.374;6.170;2023-07-31T00:15:08;100738.00;;;16.77;100.00
74372;BME280;62885;51.374;6.170;2023-07-31T00:17:34;100730.59;;;16.79;100.00
74372;BME280;62885;51.374;6.170;2023-07-31T00:19:59;100723.34;;;16.80;100.00
74372;BME280;62885;51.374;6.170;2023-07-31T00:22:25;100719.09;;;16.77;100.00
74372;BME280;62885;51.374;6.170;2023-07-31T00:24:51;100729.59;;;16.80;100.00
74372;BME280;62885;51.374;6.170;2023-07-31T00:27:16;100727.19;;;16.77;100.00
74372;BME280;62885;51.374;6.170;2023-07-31T00:29:41;100716.56;;;16.76;100.00
74372;BME280;62885;51.374;6.170;2023-07-31T00:32:07;100721.78;;;16.77;100.00
74372;BME280;62885;51.374;6.170;2023-07-31T00:34:32;100723.81;;;16.75;100.00
74372;BME280;62885;51.374;6.170;2023-07-31T00:36:58;100725.19;;;16.79;100.00
74372;BME280;62885;51.374;6.170;2023-07-31T00:39:23;100731.69;;;16.87;100.00
74372;BME280;62885;51.374;6.170;2023-07-31T00:41:48;100718.78;;;16.80;100.00
74372;BME280;62885;51.374;6.170;2023-07-31T00:44:14;100726.19;;;16.78;100.00
74372;BME280;62885;51.374;6.170;2023-07-31T00:46:39;100717.09;;;16.79;100.00
74372;BME280;62885;51.374;6.170;2023-07-31T00:49:05;100725.19;;;16.79;100.00
74372;BME280;62885;51.374;6.170;2023-07-31T00:51:31;100718.78;;;16.80;100.00
74372;BME280;62885;51.374;6.170;2023-07-31T00:53:56;100711.53;;;16.81;100.00
74372;BME280;62885;51.374;6.170;2023-07-31T00:56:23;100707.97;;;16.80;100.00
74372;BME280;62885;51.374;6.170;2023-07-31T00:58:49;100705.41;;;16.79;100.00
74372;BME280;62885;51.374;6.170;2023-07-31T01:01:15;100708.28;;;16.77;100.00
74372;BME280;62885;51.374;6.170;2023-07-31T01:03:40;100694.59;;;16.79;100.00
74372;BME280;62885;51.374;6.170;2023-07-31T01:06:15;100706.13;;;16.81;100.00
74372;BME280;62885;51.374;6.170;2023-07-31T01:09:02;100701.56;;;16.81;100.00
74372;BME280;62885;51.374;6.170;2023-07-31T01:11:31;100708.97;;;16.79;100.00
74372;BME280;62885;51.374;6.170;2023-07-31T01:13:58;100714.53;;;16.78;100.00
74372;BME280;62885;51.374;6.170;2023-07-31T01:16:25;100720.13;;;16.76;100.00
74372;BME280;62885;51.374;6.170;2023-07-31T01:18:51;100708.97;;;16.79;100.00
74372;BME280;62885;51.374;6.170;2023-07-31T01:25:05;100709.81;;;16.80;100.00
74372;BME280;62885;51.374;6.170;2023-07-31T01:27:06;100707.59;;;16.75;100.00
74372;BME280;62885;51.374;6.170;2023-07-31T01:32:13;100690.19;;;16.78;100.00
74372;BME280;62885;51.374;6.170;2023-07-31T01:34:41;100687.13;;;16.73;100.00
74372;BME280;62885;51.374;6.170;2023-07-31T01:37:07;100687.97;;;16.73;100.00
74372;BME280;62885;51.374;6.170;2023-07-31T01:39:32;100696.09;;;16.73;100.00
74372;BME280;62885;51.374;6.170;2023-07-31T01:41:57;100689.16;;;16.71;100.00
74372;BME280;62885;51.374;6.170;2023-07-31T01:44:23;100684.59;;;16.71;100.00
74372;BME280;62885;51.374;6.170;2023-07-31T01:46:48;100691.38;;;16.75;100.00
74372;BME280;62885;51.374;6.170;2023-07-31T01:49:13;100688.28;;;16.70;100.00
74372;BME280;62885;51.374;6.170;2023-07-31T01:51:39;100687.44;;;16.70;100.00
74372;BME280;62885;51.374;6.170;2023-07-31T01:54:04;100691.38;;;16.75;100.00
74372;BME280;62885;51.374;6.170;2023-07-31T01:56:30;100689.28;;;16.69;100.00
74372;BME280;62885;51.374;6.170;2023-07-31T01:58:55;100687.44;;;16.70;100.00
74372;BME280;62885;51.374;6.170;2023-07-31T02:01:22;100677.09;;;16.65;100.00
74372;BME280;62885;51.374;6.170;2023-07-31T02:03:47;100684.59;;;16.71;100.00
74372;BME280;62885;51.374;6.170;2023-07-31T02:06:13;100686.75;;;16.68;100.00
74372;BME280;62885;51.374;6.170;2023-07-31T02:08:40;100684.38;;;16.65;100.00
74372;BME280;62885;51.374;6.170;2023-07-31T02:11:06;100683.19;;;16.67;100.00
74372;BME280;62885;51.374;6.170;2023-07-31T02:13:31;100678.97;;;16.65;100.00
74372;BME280;62885;51.374;6.170;2023-07-31T02:15:56;100677.56;;;16.61;100.00
74372;BME280;62885;51.374;6.170;2023-07-31T02:18:22;100672.69;;;16.64;100.00
74372;BME280;62885;51.374;6.170;2023-07-31T02:20:51;100668.28;;;16.63;100.00
74372;BME280;62885;51.374;6.170;2023-07-31T02:23:17;100668.81;;;16.67;100.00
74372;BME280;62885;51.374;6.170;2023-07-31T02:25:44;100674.06;;;16.68;100.00
74372;BME280;62885;51.374;6.170;2023-07-31T02:28:09;100657.16;;;16.66;100.00
74372;BME280;62885;51.374;6.170;2023-07-31T02:30:34;100659.69;;;16.68;100.00
74372;BME280;62885;51.374;6.170;2023-07-31T02:33:00;100654.28;;;16.68;100.00
74372;BME280;62885;51.374;6.170;2023-07-31T02:35:25;100644.84;;;16.72;100.00
74372;BME280;62885;51.374;6.170;2023-07-31T02:37:51;100648.41;;;16.72;100.00
74372;BME280;62885;51.374;6.170;2023-07-31T02:40:16;100650.66;;;16.77;100.00
74372;BME280;62885;51.374;6.170;2023-07-31T02:42:41;100646.41;;;16.74;100.00
74372;BME280;62885;51.374;6.170;2023-07-31T02:45:07;100640.78;;;16.68;100.00
74372;BME280;62885;51.374;6.170;2023-07-31T02:47:33;100644.41;;;16.76;100.00
74372;BME280;62885;51.374;6.170;2023-07-31T02:49:58;100642.84;;;16.74;100.00
74372;BME280;62885;51.374;6.170;2023-07-31T02:52:25;100645.78;;;16.80;100.00
74372;BME280;62885;51.374;6.170;2023-07-31T02:54:50;100627.00;;;16.79;100.00
74372;BME280;62885;51.374;6.170;2023-07-31T02:57:15;100640.38;;;16.80;100.00
74372;BME280;62885;51.374;6.170;2023-07-31T02:59:41;100629.72;;;16.79;100.00
74372;BME280;62885;51.374;6.170;2023-07-31T03:02:06;100631.25;;;16.81;100.00
74372;BME280;62885;51.374;6.170;2023-07-31T03:04:32;100630.25;;;16.82;100.00
74372;BME280;62885;51.374;6.170;2023-07-31T03:06:57;100635.47;;;16.84;100.00
74372;BME280;62885;51.374;6.170;2023-07-31T03:09:23;100625.16;;;16.79;100.00
74372;BME280;62885;51.374;6.170;2023-07-31T03:11:48;100636.34;;;16.84;100.00
74372;BME280;62885;51.374;6.170;2023-07-31T03:14:13;100624.00;;;16.82;100.00
74372;BME280;62885;51.374;6.170;2023-07-31T03:16:39;100635.81;;;16.81;100.00
74372;BME280;62885;51.374;6.170;2023-07-31T03:19:04;100634.69;;;16.92;100.00
74372;BME280;62885;51.374;6.170;2023-07-31T03:21:30;100632.31;;;16.89;100.00
74372;BME280;62885;51.374;6.170;2023-07-31T03:23:55;100628.94;;;16.87;100.00
74372;BME280;62885;51.374;6.170;2023-07-31T03:26:20;100633.16;;;16.89;100.00
74372;BME280;62885;51.374;6.170;2023-07-31T03:28:46;100625.03;;;16.89;100.00
74372;BME280;62885;51.374;6.170;2023-07-31T03:31:11;100620.81;;;16.87;100.00
74372;BME280;62885;51.374;6.170;2023-07-31T03:33:37;100619.69;;;16.97;100.00
74372;BME280;62885;51.374;6.170;2023-07-31T03:36:02;100628.81;;;16.96;100.00
74372;BME280;62885;51.374;6.170;2023-07-31T03:38:28;100633.38;;;16.96;100.00
74372;BME280;62885;51.374;6.170;2023-07-31T03:40:53;100630.84;;;16.94;100.00
74372;BME280;62885;51.374;6.170;2023-07-31T03:43:19;100623.25;;;16.98;100.00
74372;BME280;62885;51.374;6.170;2023-07-31T03:45:44;100615.97;;;16.98;100.00
74372;BME280;62885;51.374;6.170;2023-07-31T03:48:10;100612.75;;;16.95;100.00
74372;BME280;62885;51.374;6.170;2023-07-31T03:50:35;100615.63;;;16.93;100.00
74372;BME280;62885;51.374;6.170;2023-07-31T03:53:01;100603.41;;;16.89;100.00
74372;BME280;62885;51.374;6.170;2023-07-31T03:55:26;100607.66;;;16.92;100.00
74372;BME280;62885;51.374;6.170;2023-07-31T03:57:52;100605.81;;;16.92;100.00
74372;BME280;62885;51.374;6.170;2023-07-31T04:00:17;100608.56;;;17.00;100.00
74372;BME280;62885;51.374;6.170;2023-07-31T04:02:42;100603.09;;;16.92;100.00
74372;BME280;62885;51.374;6.170;2023-07-31T04:05:08;100598.75;;;16.99;100.00
74372;BME280;62885;51.374;6.170;2023-07-31T04:07:33;100602.47;;;16.98;100.00
74372;BME280;62885;51.374;6.170;2023-07-31T04:09:59;100595.19;;;16.99;100.00
74372;BME280;62885;51.374;6.170;2023-07-31T04:12:25;100598.75;;;16.99;100.00
74372;BME280;62885;51.374;6.170;2023-07-31T04:14:50;100601.75;;;16.96;100.00
74372;BME280;62885;51.374;6.170;2023-07-31T04:17:17;100593.34;;;16.99;100.00
74372;BME280;62885;51.374;6.170;2023-07-31T04:19:43;100592.34;;;17.00;100.00
74372;BME280;62885;51.374;6.170;2023-07-31T04:22:08;100596.91;;;17.00;100.00
74372;BME280;62885;51.374;6.170;2023-07-31T04:24:34;100586.94;;;17.00;100.00
74372;BME280;62885;51.374;6.170;2023-07-31T04:26:59;100583.72;;;17.05;100.00
74372;BME280;62885;51.374;6.170;2023-07-31T04:29:25;100584.59;;;17.05;100.00
74372;BME280;62885;51.374;6.170;2023-07-31T04:31:50;100577.31;;;17.06;100.00
74372;BME280;62885;51.374;6.170;2023-07-31T04:34:15;100576.28;;;17.07;100.00
74372;BME280;62885;51.374;6.170;2023-07-31T04:36:41;100563.78;;;17.06;100.00
74372;BME280;62885;51.374;6.170;2023-07-31T04:39:06;100559.53;;;17.03;100.00
74372;BME280;62885;51.374;6.170;2023-07-31T04:41:32;100577.47;;;17.04;100.00
74372;BME280;62885;51.374;6.170;2023-07-31T04:43:57;100565.47;;;17.07;100.00
74372;BME280;62885;51.374;6.170;2023-07-31T04:46:23;100553.81;;;17.06;100.00
74372;BME280;62885;51.374;6.170;2023-07-31T04:48:48;100559.91;;;17.08;100.00
74372;BME280;62885;51.374;6.170;2023-07-31T04:51:13;100563.44;;;17.09;100.00
74372;BME280;62885;51.374;6.170;2023-07-31T04:53:39;100570.91;;;17.15;100.00
74372;BME280;62885;51.374;6.170;2023-07-31T04:56:04;100557.03;;;17.10;100.00
74372;BME280;62885;51.374;6.170;2023-07-31T04:58:29;100552.78;;;17.07;100.00
74372;BME280;62885;51.374;6.170;2023-07-31T05:00:55;100549.44;;;17.13;100.00
74372;BME280;62885;51.374;6.170;2023-07-31T05:03:20;100555.91;;;17.20;100.00
74372;BME280;62885;51.374;6.170;2023-07-31T05:05:46;100553.03;;;17.22;100.00
74372;BME280;62885;51.374;6.170;2023-07-31T05:08:11;100548.28;;;17.24;100.00
74372;BME280;62885;51.374;6.170;2023-07-31T05:10:37;100548.47;;;17.22;100.00
74372;BME280;62885;51.374;6.170;2023-07-31T05:13:02;100542.91;;;17.32;100.00
74372;BME280;62885;51.374;6.170;2023-07-31T05:15:28;100539.19;;;17.33;100.00
74372;BME280;62885;51.374;6.170;2023-07-31T05:17:53;100535.31;;;17.36;100.00
74372;BME280;62885;51.374;6.170;2023-07-31T05:20:19;100533.63;;;17.35;100.00
74372;BME280;62885;51.374;6.170;2023-07-31T05:22:45;100537.50;;;17.32;100.00
74372;BME280;62885;51.374;6.170;2023-07-31T05:25:10;100531.44;;;17.38;100.00
74372;BME280;62885;51.374;6.170;2023-07-31T05:27:35;100528.53;;;17.32;100.00
74372;BME280;62885;51.374;6.170;2023-07-31T05:30:01;100528.03;;;17.28;100.00
74372;BME280;62885;51.374;6.170;2023-07-31T05:32:26;100522.63;;;17.36;100.00
74372;BME280;62885;51.374;6.170;2023-07-31T05:34:52;100522.81;;;17.35;100.00
74372;BME280;62885;51.374;6.170;2023-07-31T05:37:18;100526.38;;;17.43;100.00
74372;BME280;62885;51.374;6.170;2023-07-31T05:39:44;100520.97;;;17.35;100.00
74372;BME280;62885;51.374;6.170;2023-07-31T05:42:09;100519.56;;;17.31;100.00
74372;BME280;62885;51.374;6.170;2023-07-31T05:44:35;100511.78;;;17.36;100.00
74372;BME280;62885;51.374;6.170;2023-07-31T05:47:00;100507.03;;;17.30;100.00
74372;BME280;62885;51.374;6.170;2023-07-31T05:49:26;100515.81;;;17.24;100.00
74372;BME280;62885;51.374;6.170;2023-07-31T05:51:51;100502.97;;;17.18;100.00
74372;BME280;62885;51.374;6.170;2023-07-31T05:54:17;100508.34;;;17.10;100.00
74372;BME280;62885;51.374;6.170;2023-07-31T05:56:42;100506.66;;;17.09;100.00
74372;BME280;62885;51.374;6.170;2023-07-31T05:59:09;100510.84;;;17.03;100.00
74372;BME280;62885;51.374;6.170;2023-07-31T06:01:35;100508.47;;;17.00;100.00
74372;BME280;62885;51.374;6.170;2023-07-31T06:04:00;100509.31;;;17.01;100.00
74372;BME280;62885;51.374;6.170;2023-07-31T06:06:27;100503.91;;;17.01;100.00
74372;BME280;62885;51.374;6.170;2023-07-31T06:08:54;100502.03;;;17.01;100.00
74372;BME280;62885;51.374;6.170;2023-07-31T06:11:20;100499.53;;;17.00;100.00
74372;BME280;62885;51.374;6.170;2023-07-31T06:13:46;100512.19;;;16.99;100.00
74372;BME280;62885;51.374;6.170;2023-07-31T06:16:13;100517.91;;;16.96;100.00
74372;BME280;62885;51.374;6.170;2023-07-31T06:18:39;100508.28;;;16.94;100.00
74372;BME280;62885;51.374;6.170;2023-07-31T06:21:04;100514.06;;;16.99;100.00
74372;BME280;62885;51.374;6.170;2023-07-31T06:23:30;100524.06;;;17.06;100.00
74372;BME280;62885;51.374;6.170;2023-07-31T06:25:55;100517.97;;;17.04;100.00
74372;BME280;62885;51.374;6.170;2023-07-31T06:28:21;100517.41;;;17.01;100.00
74372;BME280;62885;51.374;6.170;2023-07-31T06:30:46;100519.31;;;17.00;100.00
74372;BME280;62885;51.374;6.170;2023-07-31T06:33:12;100514.19;;;16.97;100.00
74372;BME280;62885;51.374;6.170;2023-07-31T06:35:37;100514.34;;;16.88;100.00
74372;BME280;62885;51.374;6.170;2023-07-31T06:38:03;100517.19;;;16.86;100.00
74372;BME280;62885;51.374;6.170;2023-07-31T06:40:29;100506.38;;;16.86;100.00
74372;BME280;62885;51.374;6.170;2023-07-31T06:42:54;100503.31;;;16.81;100.00
74372;BME280;62885;51.374;6.170;2023-07-31T06:45:20;100507.88;;;16.80;100.00
74372;BME280;62885;51.374;6.170;2023-07-31T06:47:45;100492.50;;;16.81;100.00
74372;BME280;62885;51.374;6.170;2023-07-31T06:50:11;100486.53;;;16.69;100.00
74372;BME280;62885;51.374;6.170;2023-07-31T06:52:38;100490.09;;;16.70;100.00
74372;BME280;62885;51.374;6.170;2023-07-31T06:55:17;100483.97;;;16.68;100.00
74372;BME280;62885;51.374;6.170;2023-07-31T06:57:44;100489.03;;;16.63;100.00
74372;BME280;62885;51.374;6.170;2023-07-31T07:00:09;100473.66;;;16.63;100.00
74372;BME280;62885;51.374;6.170;2023-07-31T07:02:35;100475.97;;;16.58;100.00
74372;BME280;62885;51.374;6.170;2023-07-31T07:05:00;100488.25;;;16.78;100.00
74372;BME280;62885;51.374;6.170;2023-07-31T07:07:26;100478.28;;;16.71;100.00
74372;BME280;62885;51.374;6.170;2023-07-31T07:09:51;100476.44;;;16.79;100.00
74372;BME280;62885;51.374;6.170;2023-07-31T07:12:17;100476.78;;;16.76;100.00
74372;BME280;62885;51.374;6.170;2023-07-31T07:14:42;100471.16;;;16.70;100.00
74372;BME280;62885;51.374;6.170;2023-07-31T07:17:07;100467.06;;;16.66;100.00
74372;BME280;62885;51.374;6.170;2023-07-31T07:19:33;100462.50;;;16.66;100.00
74372;BME280;62885;51.374;6.170;2023-07-31T07:22:00;100469.63;;;16.67;100.00
74372;BME280;62885;51.374;6.170;2023-07-31T07:24:27;100463.16;;;16.60;100.00
74372;BME280;62885;51.374;6.170;2023-07-31T07:26:52;100465.03;;;16.60;100.00
74372;BME280;62885;51.374;6.170;2023-07-31T07:29:18;100469.94;;;16.64;100.00
74372;BME280;62885;51.374;6.170;2023-07-31T07:31:43;100454.44;;;16.49;100.00
74372;BME280;62885;51.374;6.170;2023-07-31T07:34:08;100463.59;;;16.56;100.00
74372;BME280;62885;51.374;6.170;2023-07-31T07:36:34;100458.84;;;16.50;100.00
74372;BME280;62885;51.374;6.170;2023-07-31T07:38:59;100463.59;;;16.48;100.00
74372;BME280;62885;51.374;6.170;2023-07-31T07:41:24;100470.66;;;16.49;100.00
74372;BME280;62885;51.374;6.170;2023-07-31T07:43:50;100461.91;;;16.55;100.00
74372;BME280;62885;51.374;6.170;2023-07-31T07:46:16;100467.31;;;16.55;100.00
74372;BME280;62885;51.374;6.170;2023-07-31T07:48:41;100458.59;;;16.61;100.00
74372;BME280;62885;51.374;6.170;2023-07-31T07:51:07;100466.59;;;16.70;100.00
74372;BME280;62885;51.374;6.170;2023-07-31T07:53:32;100450.53;;;16.69;100.00
74372;BME280;62885;51.374;6.170;2023-07-31T07:55:58;100454.81;;;16.79;100.00
74372;BME280;62885;51.374;6.170;2023-07-31T07:58:23;100448.69;;;16.77;100.00
74372;BME280;62885;51.374;6.170;2023-07-31T08:00:51;100442.88;;;16.98;100.00
74372;BME280;62885;51.374;6.170;2023-07-31T08:03:17;100443.38;;;17.02;100.00
74372;BME280;62885;51.374;6.170;2023-07-31T08:05:43;100446.28;;;17.00;100.00
74372;BME280;62885;51.374;6.170;2023-07-31T08:08:13;100442.03;;;16.98;100.00
74372;BME280;62885;51.374;6.170;2023-07-31T08:10:38;100437.13;;;16.93;100.00
74372;BME280;62885;51.374;6.170;2023-07-31T08:13:04;100437.28;;;16.92;100.00
74372;BME280;62885;51.374;6.170;2023-07-31T08:15:29;100426.84;;;17.05;100.00
74372;BME280;62885;51.374;6.170;2023-07-31T08:17:55;100436.28;;;17.01;100.00
74372;BME280;62885;51.374;6.170;2023-07-31T08:20:20;100435.28;;;17.02;100.00
74372;BME280;62885;51.374;6.170;2023-07-31T08:22:45;100431.16;;;16.90;100.00
74372;BME280;62885;51.374;6.170;2023-07-31T08:25:12;100439.94;;;16.83;100.00
74372;BME280;62885;51.374;6.170;2023-07-31T08:27:38;100434.56;;;16.92;100.00
74372;BME280;62885;51.374;6.170;2023-07-31T08:30:06;100441.97;;;16.81;100.00
74372;BME280;62885;51.374;6.170;2023-07-31T08:32:31;100450.13;;;16.98;100.00
74372;BME280;62885;51.374;6.170;2023-07-31T08:34:57;100439.13;;;16.91;100.00
74372;BME280;62885;51.374;6.170;2023-07-31T08:37:22;100439.28;;;16.90;100.00
74372;BME280;62885;51.374;6.170;2023-07-31T08:39:48;100444.19;;;16.86;100.00
74372;BME280;62885;51.374;6.170;2023-07-31T08:42:13;100444.53;;;16.83;100.00
74372;BME280;62885;51.374;6.170;2023-07-31T08:44:38;100435.91;;;16.88;100.00
74372;BME280;62885;51.374;6.170;2023-07-31T08:47:04;100436.22;;;16.84;100.00
74372;BME280;62885;51.374;6.170;2023-07-31T08:49:30;100440.97;;;16.91;100.00
74372;BME280;62885;51.374;6.170;2023-07-31T08:51:56;100437.63;;;16.89;100.00
74372;BME280;62885;51.374;6.170;2023-07-31T08:54:23;100438.44;;;16.89;100.00
74372;BME280;62885;51.374;6.170;2023-07-31T08:56:49;100434.94;;;17.05;100.00
74372;BME280;62885;51.374;6.170;2023-07-31T08:59:15;100430.69;;;16.94;100.00
74372;BME280;62885;51.374;6.170;2023-07-31T09:01:44;100434.91;;;16.97;100.00
74372;BME280;62885;51.374;6.170;2023-07-31T09:04:14;100436.66;;;17.14;100.00
74372;BME280;62885;51.374;6.170;2023-07-31T09:06:40;100442.06;;;17.06;100.00
74372;BME280;62885;51.374;6.170;2023-07-31T09:09:07;100442.53;;;17.01;100.00
74372;BME280;62885;51.374;6.170;2023-07-31T09:11:32;100444.28;;;17.10;100.00
74372;BME280;62885;51.374;6.170;2023-07-31T09:13:58;100446.22;;;16.92;100.00
74372;BME280;62885;51.374;6.170;2023-07-31T09:16:28;100444.38;;;16.93;100.00
74372;BME280;62885;51.374;6.170;2023-07-31T09:18:56;100437.28;;;16.92;100.00
74372;BME280;62885;51.374;6.170;2023-07-31T09:21:23;100446.94;;;17.02;100.00
74372;BME280;62885;51.374;6.170;2023-07-31T09:23:49;100434.75;;;16.98;100.00
74372;BME280;62885;51.374;6.170;2023-07-31T09:26:31;100434.91;;;16.97;100.00
74372;BME280;62885;51.374;6.170;2023-07-31T09:28:58;100429.19;;;17.00;100.00
74372;BME280;62885;51.374;6.170;2023-07-31T09:31:38;100416.69;;;16.99;100.00
74372;BME280;62885;51.374;6.170;2023-07-31T09:34:04;100421.81;;;17.18;100.00
74372;BME280;62885;51.374;6.170;2023-07-31T09:36:29;100428.03;;;17.18;100.00
74372;BME280;62885;51.374;6.170;2023-07-31T09:39:01;100419.28;;;17.33;100.00
74372;BME280;62885;51.374;6.170;2023-07-31T09:41:28;100426.56;;;17.32;100.00
74372;BME280;62885;51.374;6.170;2023-07-31T09:43:54;100426.22;;;17.27;100.00
74372;BME280;62885;51.374;6.170;2023-07-31T09:46:20;100427.25;;;17.34;100.00
74372;BME280;62885;51.374;6.170;2023-07-31T09:48:46;100418.63;;;17.39;100.00
74372;BME280;62885;51.374;6.170;2023-07-31T09:51:12;100421.00;;;17.50;100.00
74372;BME280;62885;51.374;6.170;2023-07-31T09:53:37;100422.03;;;17.65;100.00
74372;BME280;62885;51.374;6.170;2023-07-31T09:56:03;100413.03;;;17.56;100.00
74372;BME280;62885;51.374;6.170;2023-07-31T09:58:34;100412.03;;;17.57;100.00
74372;BME280;62885;51.374;6.170;2023-07-31T10:01:02;100414.94;;;17.64;100.00
74372;BME280;62885;51.374;6.170;2023-07-31T10:03:29;100415.28;;;17.69;100.00
74372;BME280;62885;51.374;6.170;2023-07-31T10:05:57;100410.03;;;17.68;100.00
74372;BME280;62885;51.374;6.170;2023-07-31T10:08:27;100415.09;;;17.71;100.00
74372;BME280;62885;51.374;6.170;2023-07-31T10:10:59;100409.34;;;17.65;100.00
74372;BME280;62885;51.374;6.170;2023-07-31T10:13:27;100395.31;;;17.70;100.00
74372;BME280;62885;51.374;6.170;2023-07-31T10:15:53;100407.13;;;17.77;100.00
74372;BME280;62885;51.374;6.170;2023-07-31T10:18:19;100394.44;;;17.78;100.00
74372;BME280;62885;51.374;6.170;2023-07-31T10:20:47;100410.53;;;17.79;100.00
74372;BME280;62885;51.374;6.170;2023-07-31T10:23:13;100406.28;;;17.85;100.00
74372;BME280;62885;51.374;6.170;2023-07-31T10:25:39;100409.34;;;17.98;100.00
74372;BME280;62885;51.374;6.170;2023-07-31T10:28:05;100406.47;;;17.91;100.00
74372;BME280;62885;51.374;6.170;2023-07-31T10:30:33;100419.16;;;17.99;100.00
74372;BME280;62885;51.374;6.170;2023-07-31T10:33:00;100411.19;;;17.97;100.00
74372;BME280;62885;51.374;6.170;2023-07-31T10:35:27;100410.34;;;17.97;100.00
74372;BME280;62885;51.374;6.170;2023-07-31T10:37:52;100406.28;;;17.93;100.00
74372;BME280;62885;51.374;6.170;2023-07-31T10:40:26;100409.84;;;17.93;100.00
74372;BME280;62885;51.374;6.170;2023-07-31T10:45:44;100409.66;;;18.03;100.00
74372;BME280;62885;51.374;6.170;2023-07-31T10:48:14;100403.91;;;17.98;100.00
74372;BME280;62885;51.374;6.170;2023-07-31T10:50:49;100405.25;;;18.02;100.00
74372;BME280;62885;51.374;6.170;2023-07-31T10:53:23;100408.81;;;17.94;100.00
74372;BME280;62885;51.374;6.170;2023-07-31T10:55:49;100403.59;;;17.93;100.00
74372;BME280;62885;51.374;6.170;2023-07-31T10:58:19;100400.19;;;17.99;100.00
74372;BME280;62885;51.374;6.170;2023-07-31T11:00:45;100400.69;;;18.02;100.00
74372;BME280;62885;51.374;6.170;2023-07-31T11:03:15;100402.22;;;18.05;100.00
74372;BME280;62885;51.374;6.170;2023-07-31T11:05:42;100404.06;;;18.04;100.00
74372;BME280;62885;51.374;6.170;2023-07-31T11:08:18;100410.63;;;18.18;100.00
74372;BME280;62885;51.374;6.170;2023-07-31T11:10:45;100404.56;;;18.16;100.00
74372;BME280;62885;51.374;6.170;2023-07-31T11:13:11;100403.19;;;18.20;100.00
74372;BME280;62885;51.374;6.170;2023-07-31T11:15:37;100398.09;;;18.25;100.00
74372;BME280;62885;51.374;6.170;2023-07-31T11:18:03;100400.25;;;18.38;100.00
74372;BME280;62885;51.374;6.170;2023-07-31T11:20:32;100399.03;;;18.48;100.00
74372;BME280;62885;51.374;6.170;2023-07-31T11:23:00;100399.34;;;18.54;100.00
74372;BME280;62885;51.374;6.170;2023-07-31T11:25:28;100393.47;;;18.42;100.00
74372;BME280;62885;51.374;6.170;2023-07-31T11:27:54;100388.88;;;18.51;100.00
74372;BME280;62885;51.374;6.170;2023-07-31T11:30:21;100398.41;;;18.38;100.00
74372;BME280;62885;51.374;6.170;2023-07-31T11:32:47;100395.00;;;18.36;100.00
74372;BME280;62885;51.374;6.170;2023-07-31T11:35:12;100397.38;;;18.39;100.00
74372;BME280;62885;51.374;6.170;2023-07-31T11:37:41;100395.00;;;18.36;100.00
74372;BME280;62885;51.374;6.170;2023-07-31T11:40:07;100383.16;;;18.37;100.00
74372;BME280;62885;51.374;6.170;2023-07-31T11:42:34;100395.53;;;18.40;100.00
74372;BME280;62885;51.374;6.170;2023-07-31T11:45:05;100373.94;;;18.46;100.00
74372;BME280;62885;51.374;6.170;2023-07-31T11:47:33;100372.94;;;18.47;100.00
74372;BME280;62885;51.374;6.170;2023-07-31T11:50:03;100380.69;;;18.67;100.00
74372;BME280;62885;51.374;6.170;2023-07-31T11:52:31;100379.63;;;18.76;100.00
74372;BME280;62885;51.374;6.170;2023-07-31T11:54:57;100372.16;;;18.78;100.00
74372;BME280;62885;51.374;6.170;2023-07-31T11:57:25;100370.16;;;18.72;100.00
74372;BME280;62885;51.374;6.170;2023-07-31T11:59:51;100364.38;;;18.75;100.00
74372;BME280;62885;51.374;6.170;2023-07-31T12:02:18;100369.63;;;18.76;100.00
74372;BME280;62885;51.374;6.170;2023-07-31T12:04:43;100370.31;;;18.70;100.00
74372;BME280;62885;51.374;6.170;2023-07-31T12:07:10;100367.91;;;18.75;100.00
74372;BME280;62885;51.374;6.170;2023-07-31T12:09:37;100370.31;;;18.70;100.00
74372;BME280;62885;51.374;6.170;2023-07-31T12:12:08;100371.38;;;18.69;100.00
74372;BME280;62885;51.374;6.170;2023-07-31T12:14:34;100363.88;;;18.71;100.00
74372;BME280;62885;51.374;6.170;2023-07-31T12:17:03;100358.31;;;18.65;100.00
74372;BME280;62885;51.374;6.170;2023-07-31T12:19:29;100361.03;;;18.65;100.00
74372;BME280;62885;51.374;6.170;2023-07-31T12:21:59;100370.69;;;18.67;100.00
74372;BME280;62885;51.374;6.170;2023-07-31T12:24:26;100355.91;;;18.70;100.00
74372;BME280;62885;51.374;6.170;2023-07-31T12:26:52;100362.69;;;18.74;100.00
74372;BME280;62885;51.374;6.170;2023-07-31T12:29:17;100365.19;;;18.75;100.00
74372;BME280;62885;51.374;6.170;2023-07-31T12:31:43;100359.13;;;18.73;100.00
74372;BME280;62885;51.374;6.170;2023-07-31T12:34:19;100359.88;;;18.90;100.00
74372;BME280;62885;51.374;6.170;2023-07-31T12:36:46;100366.47;;;18.96;100.00
74372;BME280;62885;51.374;6.170;2023-07-31T12:39:14;100359.50;;;18.93;100.00
74372;BME280;62885;51.374;6.170;2023-07-31T12:41:40;100348.91;;;18.83;100.00
74372;BME280;62885;51.374;6.170;2023-07-31T12:44:05;100343.13;;;18.86;100.00